createdAt,value
2019-06-10T00:01:27.008Z,64.10
2019-06-10T00:04:00.516Z,64.67
2019-06-10T00:06:31.786Z,64.02
2019-06-10T00:09:06.424Z,64.38
2019-06-10T00:11:37.080Z,63.50
2019-06-10T00:14:10.738Z,64.21
2019-06-10T00:16:42.066Z,63.00
2019-06-10T00:19:13.637Z,62.88
2019-06-10T00:21:45.310Z,63.76
2019-06-10T00:24:16.991Z,63.26
2019-06-10T00:26:50.873Z,70.80
2019-06-10T00:29:22.472Z,73.76
2019-06-10T00:31:53.958Z,70.27
2019-06-10T00:34:25.729Z,71.55
2019-06-10T00:36:57.307Z,74.49
2019-06-10T00:39:31.147Z,75.05
2019-06-10T00:42:04.449Z,75.56
2019-06-10T00:44:34.983Z,74.85
2019-06-10T00:47:08.281Z,77.48
2019-06-10T00:49:40.945Z,78.86
2019-06-10T00:52:13.980Z,79.56
2019-06-10T00:54:45.670Z,79.41
2019-06-10T00:57:17.552Z,79.33
2019-06-10T00:59:50.794Z,78.74
2019-06-10T01:02:22.024Z,79.11
2019-06-10T01:04:53.806Z,80.75
2019-06-10T01:07:25.470Z,81.34
2019-06-10T01:09:57.250Z,82.48
2019-06-10T01:12:31.499Z,81.50
2019-06-10T01:15:03.261Z,79.08
2019-06-10T01:17:35.032Z,81.10
2019-06-10T01:20:07.865Z,81.36
2019-06-10T01:22:41.062Z,79.81
2019-06-10T01:25:14.802Z,78.84
2019-06-10T01:27:45.923Z,78.61
2019-06-10T01:30:22.582Z,76.89
2019-06-10T01:32:50.805Z,74.31
2019-06-10T01:35:22.591Z,77.48
2019-06-10T01:37:54.361Z,78.18
2019-06-10T01:40:26.136Z,78.50
2019-06-10T01:42:57.913Z,79.26
2019-06-10T01:45:31.232Z,77.50
2019-06-10T01:48:02.798Z,77.05
2019-06-10T01:50:34.472Z,77.59
2019-06-10T01:53:07.303Z,78.31
2019-06-10T01:55:41.448Z,78.93
2019-06-10T01:58:14.442Z,77.52
2019-06-10T02:01:01.445Z,78.01
2019-06-10T02:03:33.093Z,79.32
2019-06-10T02:06:04.772Z,79.46
2019-06-10T02:08:36.547Z,79.73
2019-06-10T02:11:09.200Z,80.51
2019-06-10T02:13:41.635Z,81.68
2019-06-10T02:16:15.507Z,82.83
2019-06-10T02:18:59.877Z,82.80
2019-06-10T02:21:24.323Z,82.92
2019-06-10T02:23:52.935Z,79.29
2019-06-10T02:26:24.811Z,76.44
2019-06-10T02:29:00.685Z,76.54
2019-06-10T02:31:37.554Z,74.29
2019-06-10T02:34:05.260Z,72.83
2019-06-10T02:36:37.265Z,72.19
2019-06-10T02:39:09.319Z,68.07
2019-06-10T02:41:44.660Z,67.80
2019-06-10T02:44:18.669Z,66.00
2019-06-10T02:46:47.823Z,64.47
2019-06-10T02:49:36.783Z,61.82
2019-06-10T02:51:53.765Z,61.58
2019-06-10T02:54:31.289Z,60.60
2019-06-10T02:56:58.505Z,59.71
2019-06-10T02:59:32.870Z,58.74
2019-06-10T03:02:03.699Z,58.95
2019-06-10T03:04:37.662Z,57.88
2019-06-10T03:07:08.988Z,58.70
2019-06-10T03:09:42.742Z,59.47
2019-06-10T03:12:13.873Z,60.52
2019-06-10T03:14:45.550Z,58.99
2019-06-10T03:17:19.928Z,58.52
2019-06-10T03:19:53.608Z,56.08
2019-06-10T03:22:25.830Z,54.27
2019-06-10T03:24:57.659Z,52.64
2019-06-10T03:27:29.344Z,51.68
2019-06-10T03:30:03.109Z,50.45
2019-06-10T03:32:40.553Z,50.00
2019-06-10T03:35:08.279Z,48.61
2019-06-10T03:37:39.620Z,49.20
2019-06-10T03:40:13.059Z,47.73
2019-06-10T03:42:46.442Z,48.13
2019-06-10T03:45:19.290Z,48.71
2019-06-10T03:47:52.687Z,49.28
2019-06-10T03:50:25.868Z,50.08
2019-06-10T03:52:56.826Z,52.69
2019-06-10T03:55:29.160Z,55.90
2019-06-10T03:58:02.253Z,54.62
2019-06-10T04:00:36.895Z,55.85
2019-06-10T04:03:07.304Z,53.83
2019-06-10T04:05:39.180Z,53.93
2019-06-10T04:08:12.593Z,53.93
2019-06-10T04:10:44.062Z,55.28
2019-06-10T04:13:15.840Z,54.77
2019-06-10T04:15:47.516Z,55.99
2019-06-10T04:18:19.741Z,55.62
2019-06-10T04:20:52.893Z,54.97
2019-06-10T04:23:25.495Z,54.21
2019-06-10T04:25:57.482Z,54.49
2019-06-10T04:28:29.161Z,54.63
2019-06-10T04:31:02.609Z,55.68
2019-06-10T04:33:33.939Z,54.63
2019-06-10T04:36:05.718Z,53.62
2019-06-10T04:38:37.498Z,54.37
2019-06-10T04:41:09.280Z,53.79
2019-06-10T04:43:43.170Z,53.02
2019-06-10T04:46:14.055Z,52.60
2019-06-10T04:48:45.829Z,51.02
2019-06-10T04:51:18.690Z,51.02
2019-06-10T04:53:52.476Z,51.44
2019-06-10T04:56:25.843Z,53.07
2019-06-10T04:58:56.826Z,50.88
2019-06-10T05:01:29.811Z,49.26
2019-06-10T05:04:03.178Z,49.04
2019-06-10T05:06:35.115Z,46.31
2019-06-10T05:09:07.203Z,48.96
2019-06-10T05:11:38.668Z,48.61
2019-06-10T05:14:13.029Z,48.23
2019-06-10T05:16:43.451Z,47.15
2019-06-10T05:19:15.228Z,47.13
2019-06-10T05:21:46.803Z,49.88
2019-06-10T05:24:19.733Z,46.87
2019-06-10T05:26:52.717Z,47.67
2019-06-10T05:29:26.849Z,47.17
2019-06-10T05:31:57.488Z,46.56
2019-06-10T05:34:30.311Z,47.97
2019-06-10T05:37:02.854Z,46.93
2019-06-10T05:39:35.280Z,46.57
2019-06-10T05:42:07.051Z,46.34
2019-06-10T05:44:38.721Z,44.90
2019-06-10T05:47:12.657Z,44.45
2019-06-10T05:49:43.605Z,46.20
2019-06-10T05:52:15.379Z,45.53
2019-06-10T05:54:46.958Z,45.03
2019-06-10T05:57:18.624Z,45.53
2019-06-10T05:59:52.264Z,45.17
2019-06-10T06:02:23.933Z,45.76
2019-06-10T06:04:56.664Z,45.99
2019-06-10T06:07:29.163Z,45.81
2019-06-10T06:10:02.494Z,45.30
2019-06-10T06:12:35.668Z,45.17
2019-06-10T06:15:07.441Z,45.33
2019-06-10T06:17:39.083Z,46.41
2019-06-10T06:20:13.307Z,46.09
2019-06-10T06:22:44.901Z,43.93
2019-06-10T06:25:17.328Z,44.50
2019-06-10T06:27:48.996Z,45.03
2019-06-10T06:30:22.673Z,43.64
2019-06-10T06:32:54.444Z,44.29
2019-06-10T06:35:26.392Z,43.37
2019-06-10T06:37:58.206Z,42.28
2019-06-10T06:40:32.738Z,41.95
2019-06-10T06:43:03.081Z,42.34
2019-06-10T06:45:37.121Z,44.60
2019-06-10T06:48:07.967Z,43.63
2019-06-10T06:50:54.632Z,43.33
2019-06-10T06:53:25.679Z,45.21
2019-06-10T06:55:46.173Z,41.88
2019-06-10T06:58:18.044Z,44.63
2019-06-10T07:01:01.401Z,44.57
2019-06-10T07:03:23.125Z,40.17
2019-06-10T07:05:54.906Z,43.92
2019-06-10T07:08:28.171Z,45.27
2019-06-10T07:11:02.870Z,45.39
2019-06-10T07:13:37.050Z,42.45
2019-06-10T07:16:08.152Z,38.03
2019-06-10T07:18:46.373Z,40.17
2019-06-10T07:21:13.284Z,40.21
2019-06-10T07:23:46.980Z,38.96
2019-06-10T07:26:18.119Z,37.59
2019-06-10T07:28:49.789Z,36.30
2019-06-10T07:31:26.975Z,33.95
2019-06-10T07:33:54.675Z,33.80
2019-06-10T07:36:26.452Z,34.83
2019-06-10T07:38:58.128Z,34.75
2019-06-10T07:41:32.333Z,32.35
2019-06-10T07:44:03.209Z,35.34
2019-06-10T07:46:36.356Z,35.91
2019-06-10T07:49:08.330Z,34.63
2019-06-10T07:51:41.973Z,33.20
2019-06-10T07:54:13.898Z,35.33
2019-06-10T07:56:50.301Z,33.30
2019-06-10T07:59:18.501Z,34.26
2019-06-10T08:01:52.440Z,34.50
2019-06-10T08:04:23.254Z,33.58
2019-06-10T08:06:56.550Z,32.61
2019-06-10T08:09:29.160Z,33.47
2019-06-10T08:12:05.749Z,31.43
2019-06-10T08:14:35.402Z,30.34
2019-06-10T08:17:07.049Z,33.17
2019-06-10T08:19:43.083Z,32.14
2019-06-10T08:22:29.841Z,29.41
2019-06-10T08:24:47.836Z,31.10
2019-06-10T08:27:22.569Z,32.75
2019-06-10T08:30:13.742Z,32.13
2019-06-10T08:32:27.014Z,29.08
2019-06-10T08:34:58.792Z,30.26
2019-06-10T08:37:30.369Z,30.67
2019-06-10T08:40:03.833Z,32.44
2019-06-10T08:42:36.564Z,30.27
2019-06-10T08:45:08.547Z,31.23
2019-06-10T08:47:41.155Z,30.21
2019-06-10T08:50:13.443Z,29.68
2019-06-10T08:53:03.700Z,30.69
2019-06-10T08:55:17.912Z,29.92
2019-06-10T08:57:51.563Z,29.06
2019-06-10T09:00:25.642Z,30.41
2019-06-10T09:02:56.619Z,30.61
2019-06-10T09:05:28.192Z,30.58
2019-06-10T09:08:02.591Z,29.92
2019-06-10T09:10:33.947Z,28.44
2019-06-10T09:13:05.602Z,31.08
2019-06-10T09:15:38.623Z,29.84
2019-06-10T09:18:13.970Z,28.69
2019-06-10T09:20:48.512Z,31.61
2019-06-10T09:23:22.108Z,30.38
2019-06-10T09:25:56.422Z,30.47
2019-06-10T09:28:23.619Z,30.02
2019-06-10T09:30:59.417Z,32.24
2019-06-10T09:33:28.571Z,29.13
2019-06-10T09:36:00.255Z,26.91
2019-06-10T09:38:33.414Z,28.37
2019-06-10T09:41:06.375Z,27.81
2019-06-10T09:43:38.391Z,27.41
2019-06-10T09:46:12.520Z,24.36
2019-06-10T09:48:46.946Z,26.15
2019-06-10T09:51:17.102Z,27.47
2019-06-10T09:53:56.001Z,26.72
2019-06-10T09:56:23.013Z,25.46
2019-06-10T09:58:55.512Z,25.75
2019-06-10T10:01:27.013Z,26.56
2019-06-10T10:04:00.558Z,24.63
2019-06-10T10:06:32.729Z,23.68
2019-06-10T10:09:10.527Z,23.71
2019-06-10T10:11:44.484Z,23.78
2019-06-10T10:14:15.978Z,26.53
2019-06-10T10:16:52.145Z,25.91
2019-06-10T10:19:23.034Z,27.04
2019-06-10T10:21:58.167Z,24.97
2019-06-10T10:24:28.149Z,25.43
2019-06-10T10:27:02.688Z,27.30
2019-06-10T10:29:33.261Z,26.25
2019-06-10T10:32:05.829Z,25.45
2019-06-10T10:34:37.507Z,26.07
2019-06-10T10:37:09.280Z,27.58
2019-06-10T10:39:42.618Z,26.56
2019-06-10T10:42:14.268Z,25.59
2019-06-10T10:44:48.123Z,26.69
2019-06-10T10:47:18.946Z,26.27
2019-06-10T10:49:55.249Z,24.36
2019-06-10T10:52:23.828Z,26.28
2019-06-10T10:54:55.649Z,25.56
2019-06-10T10:57:27.488Z,25.74
2019-06-10T10:59:59.158Z,26.46
2019-06-10T11:02:32.205Z,23.67
2019-06-10T11:05:04.252Z,24.35
2019-06-10T11:07:36.025Z,24.69
2019-06-10T11:10:09.117Z,23.40
2019-06-10T11:12:44.901Z,26.88
2019-06-10T11:15:19.231Z,26.45
2019-06-10T11:17:54.919Z,26.41
2019-06-10T11:20:24.010Z,25.33
2019-06-10T11:22:55.783Z,26.12
2019-06-10T11:25:27.563Z,22.92
2019-06-10T11:27:59.339Z,23.49
2019-06-10T11:30:32.411Z,25.91
2019-06-10T11:33:04.371Z,27.20
2019-06-10T11:35:39.303Z,25.49
2019-06-10T11:38:13.103Z,25.06
2019-06-10T11:40:44.661Z,25.37
2019-06-10T11:43:16.341Z,23.65
2019-06-10T11:45:52.671Z,22.19
2019-06-10T11:48:23.679Z,25.51
2019-06-10T11:50:58.587Z,26.06
2019-06-10T11:53:28.847Z,25.15
2019-06-10T11:56:02.371Z,25.76
2019-06-10T11:58:34.164Z,24.60
2019-06-10T12:01:05.938Z,25.08
2019-06-10T12:03:37.815Z,24.52
2019-06-10T12:06:09.586Z,25.48
2019-06-10T12:08:43.660Z,24.91
2019-06-10T12:11:15.654Z,24.33
2019-06-10T12:13:47.376Z,21.85
2019-06-10T12:17:14.715Z,23.58
2019-06-10T12:18:54.217Z,24.83
2019-06-10T12:21:25.878Z,24.52
2019-06-10T12:24:01.217Z,25.30
2019-06-10T12:26:33.373Z,27.95
2019-06-10T12:29:05.996Z,26.62
2019-06-10T12:31:43.374Z,25.63
2019-06-10T12:34:22.714Z,24.47
2019-06-10T12:36:58.574Z,23.73
2019-06-10T12:39:28.666Z,25.84
2019-06-10T12:42:04.109Z,26.22
2019-06-10T12:44:33.819Z,24.77
2019-06-10T12:47:08.077Z,24.64
2019-06-10T12:49:38.874Z,27.16
2019-06-10T12:52:12.597Z,26.40
2019-06-10T12:54:43.623Z,26.79
2019-06-10T12:57:16.446Z,27.68
2019-06-10T12:59:48.098Z,26.83
2019-06-10T13:02:24.676Z,28.24
2019-06-10T13:04:52.977Z,28.80
2019-06-10T13:07:24.551Z,28.84
2019-06-10T13:09:57.786Z,29.60
2019-06-10T13:12:29.226Z,28.06
2019-06-10T13:15:05.033Z,28.11
2019-06-10T13:17:34.010Z,29.04
2019-06-10T13:20:08.298Z,29.79
2019-06-10T13:22:43.021Z,30.19
2019-06-10T13:25:14.347Z,28.03
2019-06-10T13:27:45.973Z,28.58
2019-06-10T13:30:17.801Z,27.05
2019-06-10T13:32:49.174Z,28.20
2019-06-10T13:35:22.839Z,27.90
2019-06-10T13:37:57.426Z,26.93
2019-06-10T13:40:31.968Z,26.88
2019-06-10T13:43:03.930Z,27.44
2019-06-10T13:45:39.418Z,28.17
2019-06-10T13:48:16.285Z,30.19
2019-06-10T13:50:49.212Z,30.62
2019-06-10T13:53:21.795Z,30.28
2019-06-10T13:56:14.399Z,29.54
2019-06-10T13:58:26.370Z,31.10
2019-06-10T14:00:57.941Z,32.08
2019-06-10T14:03:32.415Z,33.10
2019-06-10T14:06:20.951Z,32.51
2019-06-10T14:08:36.447Z,31.72
2019-06-10T14:11:08.220Z,32.94
2019-06-10T14:13:39.995Z,35.12
2019-06-10T14:16:14.007Z,34.97
2019-06-10T14:18:44.574Z,33.74
2019-06-10T14:21:18.496Z,34.47
2019-06-10T14:23:49.355Z,34.32
2019-06-10T14:26:36.184Z,34.37
2019-06-10T14:28:54.042Z,33.57
2019-06-10T14:31:39.566Z,33.97
2019-06-10T14:33:58.606Z,33.61
2019-06-10T14:36:32.414Z,33.34
2019-06-10T14:39:06.138Z,38.60
2019-06-10T14:41:37.722Z,34.64
2019-06-10T14:44:11.427Z,31.62
2019-06-10T14:46:42.624Z,29.49
2019-06-10T14:49:16.847Z,28.84
2019-06-10T14:51:47.382Z,26.63
2019-06-10T14:54:19.164Z,28.04
2019-06-10T14:56:56.904Z,27.84
2019-06-10T14:59:24.347Z,30.48
2019-06-10T15:01:55.921Z,30.84
2019-06-10T15:04:27.599Z,27.89
2019-06-10T15:06:59.374Z,28.99
2019-06-10T15:09:33.327Z,28.06
2019-06-10T15:12:04.459Z,29.37
2019-06-10T15:14:35.831Z,29.68
2019-06-10T15:17:08.448Z,30.84
2019-06-10T15:19:42.398Z,29.92
2019-06-10T15:22:15.281Z,31.36
2019-06-10T15:24:46.518Z,32.01
2019-06-10T15:27:24.781Z,34.03
2019-06-10T15:29:52.584Z,31.30
2019-06-10T15:32:33.867Z,32.79
2019-06-10T15:34:57.406Z,34.79
2019-06-10T15:37:29.348Z,35.41
2019-06-10T15:40:03.493Z,36.25
2019-06-10T15:42:34.165Z,36.67
2019-06-10T15:45:07.790Z,38.93
2019-06-10T15:47:39.152Z,38.96
2019-06-10T15:50:16.979Z,41.08
2019-06-10T15:52:48.638Z,41.21
2019-06-10T15:55:40.688Z,42.79
2019-06-10T15:57:54.295Z,43.22
2019-06-10T16:00:29.050Z,41.26
2019-06-10T16:03:02.353Z,38.64
2019-06-10T16:05:33.251Z,36.06
2019-06-10T16:08:05.126Z,33.29
2019-06-10T16:10:36.899Z,30.97
2019-06-10T16:13:08.680Z,30.67
2019-06-10T16:15:43.266Z,31.86
2019-06-10T16:18:16.344Z,33.50
2019-06-10T16:20:46.877Z,37.02
2019-06-10T16:23:19.702Z,39.33
2019-06-10T16:25:53.401Z,41.22
2019-06-10T16:28:26.139Z,44.82
2019-06-10T16:30:57.668Z,45.23
2019-06-10T16:33:29.442Z,44.50
2019-06-10T16:36:02.954Z,43.23
2019-06-10T16:38:34.576Z,43.75
2019-06-10T16:41:06.304Z,44.42
2019-06-10T16:43:37.979Z,44.93
2019-06-10T16:46:09.756Z,44.46
2019-06-10T16:48:43.572Z,44.90
2019-06-10T16:51:14.537Z,43.85
2019-06-10T16:53:46.309Z,44.18
2019-06-10T16:56:17.893Z,44.43
2019-06-10T16:58:49.556Z,43.13
2019-06-10T17:01:24.936Z,42.75
2019-06-10T17:03:54.314Z,44.07
2019-06-10T17:06:26.863Z,45.05
2019-06-10T17:08:58.300Z,44.03
2019-06-10T17:11:30.528Z,46.73
2019-06-10T17:14:03.105Z,46.59
2019-06-10T17:16:34.963Z,45.49
2019-06-10T17:19:06.635Z,45.09
2019-06-10T17:21:38.455Z,47.16
2019-06-10T17:24:12.795Z,42.70
2019-06-10T17:26:44.419Z,43.52
2019-06-10T17:29:16.101Z,43.69
2019-06-10T17:31:47.868Z,44.25
2019-06-10T17:34:20.528Z,45.31
2019-06-10T17:36:53.855Z,45.36
2019-06-10T17:39:27.026Z,45.33
2019-06-10T17:41:58.966Z,44.95
2019-06-10T17:44:32.250Z,45.09
2019-06-10T17:47:03.847Z,45.48
2019-06-10T17:49:35.625Z,45.80
2019-06-10T17:52:07.198Z,45.88
2019-06-10T17:54:38.972Z,47.83
2019-06-10T17:57:12.896Z,45.81
2019-06-10T17:59:44.571Z,46.00
2019-06-10T18:02:16.560Z,46.85
2019-06-10T18:04:48.328Z,45.78
2019-06-10T18:07:22.292Z,46.06
2019-06-10T18:09:53.085Z,43.83
2019-06-10T18:12:25.753Z,44.15
2019-06-10T18:14:57.193Z,43.44
2019-06-10T18:17:29.053Z,43.12
2019-06-10T18:20:02.796Z,43.80
2019-06-10T18:22:36.979Z,43.41
2019-06-10T18:25:12.320Z,43.73
2019-06-10T18:27:44.447Z,44.35
2019-06-10T18:30:16.450Z,44.42
2019-06-10T18:32:47.811Z,44.60
2019-06-10T18:35:22.372Z,46.15
2019-06-10T18:37:53.536Z,45.27
2019-06-10T18:40:25.269Z,44.84
2019-06-10T18:42:57.051Z,44.88
2019-06-10T18:45:29.828Z,45.77
2019-06-10T18:48:01.731Z,45.82
2019-06-10T18:50:36.032Z,45.89
2019-06-10T18:53:06.409Z,45.48
2019-06-10T18:55:40.597Z,46.72
2019-06-10T18:58:12.209Z,46.71
2019-06-10T19:00:56.879Z,47.04
2019-06-10T19:03:17.038Z,46.53
2019-06-10T19:05:52.683Z,47.05
2019-06-10T19:08:26.396Z,47.83
2019-06-10T19:10:57.771Z,48.23
2019-06-10T19:13:37.176Z,47.83
2019-06-10T19:16:09.169Z,47.66
2019-06-10T19:18:43.090Z,47.52
2019-06-10T19:21:14.252Z,48.44
2019-06-10T19:23:46.032Z,50.10
2019-06-10T19:26:17.808Z,50.11
2019-06-10T19:28:49.590Z,50.14
2019-06-10T19:31:21.160Z,50.41
2019-06-10T19:33:53.650Z,50.29
2019-06-10T19:36:25.228Z,50.64
2019-06-10T19:38:56.999Z,51.43
2019-06-10T19:41:28.675Z,50.87
2019-06-10T19:44:02.354Z,50.42
2019-06-10T19:46:34.257Z,50.23
2019-06-10T19:49:07.215Z,49.63
2019-06-10T19:51:39.005Z,50.09
2019-06-10T19:54:12.832Z,48.97
2019-06-10T19:56:43.856Z,48.85
2019-06-10T19:59:15.608Z,48.53
2019-06-10T20:01:48.789Z,48.68
2019-06-10T20:04:22.517Z,48.93
2019-06-10T20:06:53.904Z,49.06
2019-06-10T20:09:25.498Z,49.35
2019-06-10T20:11:57.155Z,49.40
2019-06-10T20:14:28.827Z,48.95
2019-06-10T20:17:02.943Z,49.65
2019-06-10T20:19:33.611Z,49.65
2019-06-10T20:22:05.178Z,49.69
2019-06-10T20:24:36.856Z,49.99
2019-06-10T20:27:08.527Z,49.33
2019-06-10T20:29:42.577Z,49.54
2019-06-10T20:32:13.412Z,49.38
2019-06-10T20:34:45.192Z,49.45
2019-06-10T20:37:16.965Z,50.41
2019-06-10T20:39:48.636Z,51.57
2019-06-10T20:42:20.315Z,51.57
2019-06-10T20:44:51.989Z,50.49
2019-06-10T20:47:23.763Z,50.40
2019-06-10T20:49:56.246Z,51.12
2019-06-10T20:52:28.035Z,50.15
2019-06-10T20:55:02.408Z,50.15
2019-06-10T20:57:33.134Z,50.15
2019-06-10T21:00:19.698Z,51.17
2019-06-10T21:02:43.491Z,51.25
2019-06-10T21:05:14.060Z,52.40
2019-06-10T21:07:47.238Z,52.37
2019-06-10T21:10:22.335Z,52.80
2019-06-10T21:12:54.218Z,53.76
2019-06-10T21:15:25.990Z,53.76
2019-06-10T21:17:57.764Z,52.78
2019-06-10T21:20:29.549Z,52.84
2019-06-10T21:23:03.028Z,51.92
2019-06-10T21:25:34.120Z,52.48
2019-06-10T21:28:05.896Z,51.60
2019-06-10T21:30:42.125Z,53.28
2019-06-10T21:33:12.928Z,53.28
2019-06-10T21:35:46.591Z,53.38
2019-06-10T21:38:16.991Z,55.76
2019-06-10T21:40:49.750Z,55.96
2019-06-10T21:43:22.339Z,57.43
2019-06-10T21:45:57.604Z,57.85
2019-06-10T21:48:27.163Z,58.70
2019-06-10T21:50:58.744Z,58.67
2019-06-10T21:53:30.515Z,58.42
2019-06-10T21:56:02.293Z,58.93
2019-06-10T21:58:33.966Z,58.50
2019-06-10T22:01:13.026Z,59.79
2019-06-10T22:03:39.471Z,59.77
2019-06-10T22:06:12.341Z,59.92
2019-06-10T22:08:44.234Z,59.85
2019-06-10T22:11:16.021Z,60.32
2019-06-10T22:13:48.122Z,61.18
2019-06-10T22:16:19.780Z,62.24
2019-06-10T22:18:52.637Z,63.13
2019-06-10T22:21:24.355Z,63.29
2019-06-10T22:23:57.089Z,62.87
2019-06-10T22:26:28.520Z,64.60
2019-06-10T22:29:00.092Z,63.19
2019-06-10T22:31:32.628Z,62.35
2019-06-10T22:34:04.257Z,62.21
2019-06-10T22:36:35.835Z,63.66
2019-06-10T22:39:07.505Z,63.67
2019-06-10T22:41:39.291Z,62.63
2019-06-10T22:44:12.673Z,63.26
2019-06-10T22:46:44.177Z,65.34
2019-06-10T22:49:15.840Z,66.26
2019-06-10T22:51:48.242Z,65.13
2019-06-10T22:54:19.911Z,64.88
2019-06-10T22:56:54.246Z,64.28
2019-06-10T22:59:24.991Z,64.17
2019-06-10T23:01:58.203Z,65.07
2019-06-10T23:04:29.777Z,64.89
2019-06-10T23:07:03.072Z,64.47
2019-06-10T23:09:34.758Z,63.08
2019-06-10T23:12:06.433Z,63.06
2019-06-10T23:14:38.104Z,61.50
2019-06-10T23:17:09.886Z,64.60
2019-06-10T23:19:42.760Z,67.09
2019-06-10T23:22:14.460Z,69.42
2019-06-10T23:24:46.131Z,69.38
2019-06-10T23:27:17.810Z,67.85
2019-06-10T23:29:50.525Z,67.84
2019-06-10T23:32:22.798Z,67.66
2019-06-10T23:34:57.740Z,67.31
2019-06-10T23:37:27.574Z,66.26
2019-06-10T23:39:59.253Z,65.29
2019-06-10T23:42:32.165Z,66.20
2019-06-10T23:45:05.066Z,67.78
2019-06-10T23:47:36.620Z,68.45
2019-06-10T23:50:08.409Z,69.31
2019-06-10T23:52:40.181Z,70.40
2019-06-10T23:55:13.123Z,72.52
2019-06-10T23:57:44.547Z,71.36
